Time;durP1;ratioP1;P1;durP2;ratioP2;P2;SDS_P1;SDS_P2;PMS_P1;PMS_P2;Temp;Humidity;BMP_temperature;BMP_pressure;BME280_temperature;BME280_humidity;BME280_pressure;Samples;Min_cycle;Max_cycle;Signal;HPM_P1;HPM_P2
2020/12/22 00:02:12;;;;;;;;;;;8.40;99.90;;;;;;5052363;28;19925;-69
2020/12/22 00:04:38;;;;;;;;;;;8.50;99.90;;;;;;5052404;28;19925;-69
2020/12/22 00:07:04;;;;;;;;;;;8.50;99.90;;;;;;5052052;28;19935;-69
2020/12/22 00:09:30;;;;;;;;;;;8.50;99.90;;;;;;5052388;28;19939;-69
2020/12/22 00:11:57;;;;;;;;;;;8.50;99.90;;;;;;5051841;28;20306;-69
2020/12/22 00:14:23;;;;;;;;;;;8.60;99.90;;;;;;5052465;28;20033;-69
2020/12/22 00:16:49;;;;;;;;;;;8.60;99.90;;;;;;5051784;28;20294;-69
2020/12/22 00:19:16;;;;;;;;;;;8.70;99.90;;;;;;5052219;28;19985;-69
2020/12/22 00:21:42;;;;;;;;;;;8.70;99.80;;;;;;5051873;28;19993;-69
2020/12/22 00:24:08;;;;;;;;;;;8.70;99.80;;;;;;5052182;28;20055;-69
2020/12/22 00:26:35;;;;;;;;;;;8.70;99.70;;;;;;5052130;28;20000;-70
2020/12/22 00:29:01;;;;;;;;;;;8.70;99.80;;;;;;5051670;28;19999;-69
2020/12/22 00:31:27;;;;;;;;;;;8.70;99.80;;;;;;5052054;28;19935;-70
2020/12/22 00:33:53;;;;;;;;;;;8.70;99.80;;;;;;5051653;28;19924;-69
2020/12/22 00:36:21;;;;;;;;;;;8.70;99.90;;;;;;5052080;28;20193;-69
2020/12/22 00:38:47;;;;;;;;;;;8.70;99.90;;;;;;5051569;28;19924;-69
2020/12/22 00:41:14;;;;;;;;;;;8.80;99.90;;;;;;5052282;28;19984;-69
2020/12/22 00:43:41;;;;;;;;;;;8.70;99.90;;;;;;5051949;28;19925;-69
2020/12/22 00:46:07;;;;;;;;;;;8.70;99.90;;;;;;5053316;28;20007;-69
2020/12/22 00:48:33;;;;;;;;;;;8.60;99.90;;;;;;5055624;28;20367;-70
2020/12/22 00:51:00;;;;;;;;;;;8.70;99.90;;;;;;5055161;28;20359;-69
2020/12/22 00:53:27;;;;;;;;;;;8.70;99.90;;;;;;5055417;28;20384;-69
2020/12/22 00:55:53;;;;;;;;;;;8.80;99.90;;;;;;5055165;28;19929;-69
2020/12/22 00:58:20;;;;;;;;;;;8.70;99.90;;;;;;5055368;28;19925;-70
2020/12/22 01:00:46;;;;;;;;;;;8.70;99.90;;;;;;5055378;28;19925;-69
2020/12/22 01:03:12;;;;;;;;;;;8.70;99.90;;;;;;5055378;28;19947;-69
2020/12/22 01:05:38;;;;;;;;;;;8.70;99.90;;;;;;5055124;28;20434;-70
2020/12/22 01:08:04;;;;;;;;;;;8.80;99.90;;;;;;5054997;28;20001;-69
2020/12/22 01:10:32;;;;;;;;;;;8.80;99.90;;;;;;5055228;28;19935;-69
2020/12/22 01:12:58;;;;;;;;;;;8.80;99.90;;;;;;5054703;28;19925;-69
2020/12/22 01:15:24;;;;;;;;;;;8.90;99.90;;;;;;5055161;28;19929;-69
2020/12/22 01:17:50;;;;;;;;;;;8.90;99.90;;;;;;5054671;28;19929;-70
2020/12/22 01:20:16;;;;;;;;;;;8.90;99.90;;;;;;5054862;28;19955;-69
2020/12/22 01:22:43;;;;;;;;;;;8.90;99.80;;;;;;5055117;28;19935;-69
2020/12/22 01:25:09;;;;;;;;;;;8.90;99.70;;;;;;5054620;28;19925;-70
2020/12/22 01:27:36;;;;;;;;;;;9.00;99.90;;;;;;5055177;28;19947;-69
2020/12/22 01:30:02;;;;;;;;;;;8.90;99.90;;;;;;5054411;28;19985;-70
2020/12/22 01:32:29;;;;;;;;;;;8.90;99.80;;;;;;5054642;28;19935;-69
2020/12/22 01:34:55;;;;;;;;;;;8.90;99.90;;;;;;5054716;28;20304;-70
2020/12/22 01:37:21;;;;;;;;;;;8.80;99.90;;;;;;5054830;28;20022;-70
2020/12/22 01:39:47;;;;;;;;;;;8.90;99.90;;;;;;5054291;28;19925;-69
2020/12/22 01:42:13;;;;;;;;;;;8.90;99.90;;;;;;5054939;28;20266;-69
2020/12/22 01:44:40;;;;;;;;;;;8.90;99.90;;;;;;5054642;28;19933;-70
2020/12/22 01:47:08;;;;;;;;;;;9.00;99.90;;;;;;5054138;28;20371;-69
2020/12/22 01:49:34;;;;;;;;;;;9.00;99.90;;;;;;5054604;28;19943;-69
2020/12/22 01:52:01;;;;;;;;;;;9.10;99.90;;;;;;5054033;28;19939;-70
2020/12/22 01:54:27;;;;;;;;;;;9.10;99.90;;;;;;5054644;28;19950;-69
2020/12/22 01:56:54;;;;;;;;;;;9.10;99.90;;;;;;5054037;28;20237;-69
2020/12/22 01:59:21;;;;;;;;;;;9.10;99.90;;;;;;5054353;28;19925;-69
2020/12/22 02:01:49;;;;;;;;;;;9.20;99.90;;;;;;5054409;28;19935;-70
2020/12/22 02:04:15;;;;;;;;;;;9.20;99.80;;;;;;5053961;28;20009;-69
2020/12/22 02:06:41;;;;;;;;;;;9.30;99.90;;;;;;5054465;28;20262;-69
2020/12/22 02:09:09;;;;;;;;;;;9.30;99.80;;;;;;5053823;28;20385;-69
2020/12/22 02:11:36;;;;;;;;;;;9.40;99.90;;;;;;5054090;28;19931;-69
2020/12/22 02:14:03;;;;;;;;;;;9.30;99.80;;;;;;5053615;28;19925;-70
2020/12/22 02:16:30;;;;;;;;;;;9.30;99.90;;;;;;5054101;28;20070;-69
2020/12/22 02:18:57;;;;;;;;;;;9.30;99.90;;;;;;5053386;28;20007;-70
2020/12/22 02:21:24;;;;;;;;;;;9.40;99.90;;;;;;5053948;28;19981;-69
2020/12/22 02:23:52;;;;;;;;;;;9.40;99.90;;;;;;5053994;28;20370;-70
2020/12/22 02:26:18;;;;;;;;;;;9.40;99.90;;;;;;5053551;28;20692;-70
2020/12/22 02:28:44;;;;;;;;;;;9.50;99.90;;;;;;5053932;28;20366;-70
2020/12/22 02:31:10;;;;;;;;;;;9.50;99.90;;;;;;5053508;28;19928;-70
2020/12/22 02:33:36;;;;;;;;;;;9.40;99.90;;;;;;5053468;28;19939;-69
2020/12/22 02:36:07;;;;;;;;;;;9.50;99.90;;;;;;5053253;28;19924;-70
2020/12/22 02:38:34;;;;;;;;;;;9.50;99.90;;;;;;5053508;28;19929;-70
2020/12/22 02:41:00;;;;;;;;;;;9.50;99.90;;;;;;5053215;28;19932;-70
2020/12/22 02:43:26;;;;;;;;;;;9.50;99.90;;;;;;5054008;28;19924;-70
2020/12/22 02:45:52;;;;;;;;;;;9.50;99.90;;;;;;5053455;28;19948;-70
2020/12/22 02:48:19;;;;;;;;;;;9.50;99.90;;;;;;5053176;28;19925;-70
2020/12/22 02:50:45;;;;;;;;;;;9.50;99.90;;;;;;5053389;28;19924;-70
2020/12/22 02:53:11;;;;;;;;;;;9.50;99.90;;;;;;5052868;28;19925;-70
2020/12/22 02:55:38;;;;;;;;;;;9.60;99.90;;;;;;5053177;28;19924;-70
2020/12/22 02:58:04;;;;;;;;;;;9.60;99.90;;;;;;5052808;28;19924;-70
2020/12/22 03:00:31;;;;;;;;;;;9.60;99.90;;;;;;5053085;28;20068;-69
2020/12/22 03:02:57;;;;;;;;;;;9.60;99.90;;;;;;5052640;28;19932;-70
2020/12/22 03:05:23;;;;;;;;;;;9.60;99.90;;;;;;5053287;28;19925;-69
2020/12/22 03:07:50;;;;;;;;;;;9.60;99.90;;;;;;5052767;28;19925;-69
2020/12/22 03:10:17;;;;;;;;;;;9.60;99.90;;;;;;5052669;28;21483;-69
2020/12/22 03:12:44;;;;;;;;;;;9.60;99.90;;;;;;5052975;28;19977;-69
2020/12/22 03:15:11;;;;;;;;;;;9.60;99.90;;;;;;5052558;28;19982;-69
2020/12/22 03:17:37;;;;;;;;;;;9.70;99.90;;;;;;5053007;28;19931;-69
2020/12/22 03:20:05;;;;;;;;;;;9.70;99.90;;;;;;5052429;28;19924;-69
2020/12/22 03:22:32;;;;;;;;;;;9.70;99.90;;;;;;5052965;28;19932;-69
2020/12/22 03:24:58;;;;;;;;;;;9.60;99.90;;;;;;5052726;28;19996;-70
2020/12/22 03:27:24;;;;;;;;;;;9.60;99.90;;;;;;5052690;28;20363;-69
2020/12/22 03:29:51;;;;;;;;;;;9.60;99.90;;;;;;5052795;28;20416;-69
2020/12/22 03:32:17;;;;;;;;;;;9.60;99.90;;;;;;5052304;28;19965;-70
2020/12/22 03:34:44;;;;;;;;;;;9.60;99.90;;;;;;5052867;28;20015;-70
2020/12/22 03:37:10;;;;;;;;;;;9.50;99.90;;;;;;5052198;28;19943;-70
2020/12/22 03:39:37;;;;;;;;;;;9.50;99.90;;;;;;5052795;28;19931;-70
2020/12/22 03:42:03;;;;;;;;;;;9.40;99.90;;;;;;5052168;28;19935;-71
2020/12/22 03:44:29;;;;;;;;;;;9.40;99.90;;;;;;5052932;28;19925;-70
2020/12/22 03:46:56;;;;;;;;;;;9.40;99.90;;;;;;5052359;28;20023;-71
2020/12/22 03:49:22;;;;;;;;;;;9.50;99.90;;;;;;5052424;28;20021;-71
2020/12/22 03:51:48;;;;;;;;;;;9.50;99.90;;;;;;5052167;28;19924;-71
2020/12/22 03:54:15;;;;;;;;;;;9.50;99.90;;;;;;5052553;28;19932;-70
2020/12/22 03:56:41;;;;;;;;;;;9.50;99.90;;;;;;5052228;28;20258;-71
2020/12/22 03:59:07;;;;;;;;;;;9.50;99.90;;;;;;5052380;28;20011;-71
2020/12/22 04:01:33;;;;;;;;;;;9.50;99.90;;;;;;5052079;28;20020;-71
2020/12/22 04:04:00;;;;;;;;;;;9.50;99.90;;;;;;5052593;28;19932;-71
2020/12/22 04:06:27;;;;;;;;;;;9.50;99.90;;;;;;5052125;28;19929;-71
2020/12/22 04:08:53;;;;;;;;;;;9.50;99.90;;;;;;5052074;28;19925;-71
2020/12/22 04:11:20;;;;;;;;;;;9.50;99.90;;;;;;5052349;28;19929;-71
2020/12/22 04:13:46;;;;;;;;;;;9.50;99.90;;;;;;5051746;28;20012;-72
2020/12/22 04:16:12;;;;;;;;;;;9.50;99.90;;;;;;5052202;28;19925;-72
2020/12/22 04:18:38;;;;;;;;;;;9.60;99.90;;;;;;5051774;28;20015;-72
2020/12/22 04:21:05;;;;;;;;;;;9.60;99.90;;;;;;5054139;28;19925;-72
2020/12/22 04:23:32;;;;;;;;;;;9.60;99.90;;;;;;5055788;28;19938;-72
2020/12/22 04:25:58;;;;;;;;;;;9.60;99.90;;;;;;5056235;28;20302;-71
2020/12/22 04:28:24;;;;;;;;;;;9.60;99.90;;;;;;5056136;28;20011;-71
2020/12/22 04:30:50;;;;;;;;;;;9.60;99.90;;;;;;5055674;28;20030;-71
2020/12/22 04:33:16;;;;;;;;;;;9.60;99.90;;;;;;5055883;28;19925;-71
2020/12/22 04:35:43;;;;;;;;;;;9.60;99.90;;;;;;5055633;28;19931;-71
2020/12/22 04:38:10;;;;;;;;;;;9.60;99.90;;;;;;5056094;28;19925;-71
2020/12/22 04:40:36;;;;;;;;;;;9.60;99.90;;;;;;5055418;28;20004;-71
2020/12/22 04:43:03;;;;;;;;;;;9.70;99.90;;;;;;5055741;28;19936;-70
2020/12/22 04:45:29;;;;;;;;;;;9.70;99.90;;;;;;5055840;28;19932;-70
2020/12/22 04:47:56;;;;;;;;;;;9.70;99.90;;;;;;5055279;28;19991;-71
2020/12/22 04:50:22;;;;;;;;;;;9.80;99.90;;;;;;5056022;28;19935;-71
2020/12/22 04:52:50;;;;;;;;;;;9.70;99.90;;;;;;5055287;28;19924;-71
2020/12/22 04:55:18;;;;;;;;;;;9.70;99.90;;;;;;5055564;28;19935;-71
2020/12/22 04:57:47;;;;;;;;;;;9.70;99.90;;;;;;5055300;28;19929;-71
2020/12/22 05:00:13;;;;;;;;;;;9.70;99.90;;;;;;5055514;28;20008;-70
2020/12/22 05:02:41;;;;;;;;;;;9.70;99.90;;;;;;5055189;28;20110;-71
2020/12/22 05:05:08;;;;;;;;;;;9.70;99.90;;;;;;5055568;28;19928;-71
2020/12/22 05:07:34;;;;;;;;;;;9.70;99.90;;;;;;5055667;28;19929;-71
2020/12/22 05:10:05;;;;;;;;;;;9.70;99.90;;;;;;5055550;28;20006;-71
2020/12/22 05:12:32;;;;;;;;;;;9.80;99.90;;;;;;5055788;28;19935;-71
2020/12/22 05:14:59;;;;;;;;;;;9.80;99.90;;;;;;5055176;28;19924;-71
2020/12/22 05:17:25;;;;;;;;;;;9.90;99.90;;;;;;5055559;28;19925;-71
2020/12/22 05:19:52;;;;;;;;;;;10.00;99.90;;;;;;5055293;28;19950;-71
2020/12/22 05:22:18;;;;;;;;;;;10.00;99.90;;;;;;5055594;28;20331;-71
2020/12/22 05:24:45;;;;;;;;;;;10.10;99.90;;;;;;5054939;28;19935;-71
2020/12/22 05:27:12;;;;;;;;;;;10.10;99.90;;;;;;5055656;28;19932;-70
2020/12/22 05:29:39;;;;;;;;;;;10.10;99.90;;;;;;5054986;28;19936;-70
2020/12/22 05:32:05;;;;;;;;;;;10.10;99.90;;;;;;5054992;28;20019;-71
2020/12/22 05:34:31;;;;;;;;;;;10.10;99.90;;;;;;5055484;28;20328;-71
2020/12/22 05:36:59;;;;;;;;;;;10.20;99.90;;;;;;5054811;28;19939;-71
2020/12/22 05:39:25;;;;;;;;;;;10.10;99.90;;;;;;5055470;28;20374;-71
2020/12/22 05:41:51;;;;;;;;;;;10.10;99.90;;;;;;5054673;28;20008;-71
2020/12/22 05:44:17;;;;;;;;;;;10.10;99.90;;;;;;5055140;28;20355;-71
2020/12/22 05:46:45;;;;;;;;;;;10.20;99.90;;;;;;5054708;28;19929;-71
2020/12/22 05:49:11;;;;;;;;;;;10.20;99.90;;;;;;5055204;28;20004;-71
2020/12/22 05:51:37;;;;;;;;;;;10.20;99.90;;;;;;5055273;28;19925;-72
2020/12/22 05:54:04;;;;;;;;;;;10.20;99.90;;;;;;5054781;28;19924;-71
2020/12/22 05:56:30;;;;;;;;;;;10.30;99.90;;;;;;5054879;28;19924;-71
2020/12/22 05:58:57;;;;;;;;;;;10.30;99.90;;;;;;5054459;28;19933;-71
2020/12/22 06:01:30;;;;;;;;;;;10.40;99.90;;;;;;5054999;28;19939;-71
2020/12/22 06:03:58;;;;;;;;;;;10.40;99.90;;;;;;5054294;28;19928;-71
2020/12/22 06:06:25;;;;;;;;;;;10.40;99.90;;;;;;5054672;28;19925;-71
2020/12/22 06:08:52;;;;;;;;;;;10.50;99.90;;;;;;5054392;28;20012;-72
2020/12/22 06:11:18;;;;;;;;;;;10.40;99.90;;;;;;5054658;28;20019;-72
2020/12/22 06:13:46;;;;;;;;;;;10.40;99.90;;;;;;5054052;28;20011;-71
2020/12/22 06:16:15;;;;;;;;;;;10.40;99.90;;;;;;5054789;28;19970;-72
2020/12/22 06:18:42;;;;;;;;;;;10.40;99.90;;;;;;5054124;28;19928;-72
2020/12/22 06:21:11;;;;;;;;;;;10.50;99.90;;;;;;5054245;28;19935;-72
2020/12/22 06:23:37;;;;;;;;;;;10.50;99.90;;;;;;5054596;28;19994;-72
2020/12/22 06:26:04;;;;;;;;;;;10.50;99.90;;;;;;5053792;28;19931;-72
2020/12/22 06:28:30;;;;;;;;;;;10.50;99.90;;;;;;5054487;28;19939;-72
2020/12/22 06:30:57;;;;;;;;;;;10.60;99.90;;;;;;5053976;28;19925;-71
2020/12/22 06:33:24;;;;;;;;;;;10.60;99.90;;;;;;5054064;28;19924;-71
2020/12/22 06:36:00;;;;;;;;;;;10.60;99.90;;;;;;5053711;28;19929;-71
2020/12/22 06:38:41;;;;;;;;;;;10.60;99.90;;;;;;5054035;28;19925;-71
2020/12/22 06:41:08;;;;;;;;;;;10.60;99.90;;;;;;5053497;28;19925;-71
2020/12/22 06:43:38;;;;;;;;;;;10.60;99.90;;;;;;5053203;28;19978;-71
2020/12/22 06:46:04;;;;;;;;;;;10.70;99.90;;;;;;5053492;28;19924;-71
2020/12/22 06:48:42;;;;;;;;;;;10.70;99.90;;;;;;5053609;28;20370;-71
2020/12/22 06:51:20;;;;;;;;;;;10.70;99.90;;;;;;5053635;28;20730;-72
2020/12/22 06:53:47;;;;;;;;;;;10.70;99.90;;;;;;5053371;28;19925;-71
2020/12/22 06:56:14;;;;;;;;;;;10.70;99.90;;;;;;5053688;28;19925;-72
2020/12/22 06:58:41;;;;;;;;;;;10.70;99.90;;;;;;5053684;28;19928;-72
2020/12/22 07:01:26;;;;;;;;;;;10.80;99.90;;;;;;5053138;28;20015;-72
2020/12/22 07:03:52;;;;;;;;;;;10.80;99.90;;;;;;5053172;28;20317;-72
2020/12/22 07:06:33;;;;;;;;;;;10.90;99.90;;;;;;5053555;28;20015;-72
2020/12/22 07:08:59;;;;;;;;;;;10.90;99.90;;;;;;5053051;28;20032;-72
2020/12/22 07:11:27;;;;;;;;;;;10.90;99.90;;;;;;5053517;28;19981;-72
2020/12/22 07:13:53;;;;;;;;;;;11.00;99.90;;;;;;5052929;28;19935;-72
2020/12/22 07:16:21;;;;;;;;;;;11.00;99.90;;;;;;5053570;28;20274;-72
2020/12/22 07:18:49;;;;;;;;;;;11.00;99.90;;;;;;5052995;28;19924;-72
2020/12/22 07:21:15;;;;;;;;;;;11.00;99.90;;;;;;5053384;28;19937;-71
2020/12/22 07:23:42;;;;;;;;;;;11.10;99.90;;;;;;5053158;28;19925;-71
2020/12/22 07:26:10;;;;;;;;;;;11.10;99.90;;;;;;5052969;28;19962;-71
2020/12/22 07:28:39;;;;;;;;;;;11.20;99.90;;;;;;5053272;28;20011;-71
2020/12/22 07:31:05;;;;;;;;;;;11.20;99.90;;;;;;5052679;28;19925;-71
2020/12/22 07:33:31;;;;;;;;;;;11.30;99.90;;;;;;5053136;28;20019;-71
2020/12/22 07:35:57;;;;;;;;;;;11.30;99.90;;;;;;5052691;28;19925;-71
2020/12/22 07:38:24;;;;;;;;;;;11.30;99.90;;;;;;5053171;28;19925;-71
2020/12/22 07:40:50;;;;;;;;;;;11.30;99.90;;;;;;5052663;28;19929;-71
2020/12/22 07:43:16;;;;;;;;;;;11.30;99.90;;;;;;5053177;28;19931;-71
2020/12/22 07:45:50;;;;;;;;;;;11.40;99.90;;;;;;5052953;28;20007;-72
2020/12/22 07:48:17;;;;;;;;;;;11.40;99.90;;;;;;5052604;28;20050;-71
2020/12/22 07:50:43;;;;;;;;;;;11.40;99.90;;;;;;5053021;28;19925;-71
2020/12/22 07:53:09;;;;;;;;;;;11.50;99.90;;;;;;5052314;28;19925;-71
2020/12/22 07:55:36;;;;;;;;;;;11.50;99.90;;;;;;5055907;28;19925;-72
2020/12/22 07:58:04;;;;;;;;;;;11.50;99.90;;;;;;5056776;28;20050;-71
2020/12/22 08:00:30;;;;;;;;;;;11.40;99.90;;;;;;5056957;28;19929;-71
2020/12/22 08:02:57;;;;;;;;;;;11.50;99.90;;;;;;5056578;28;19974;-71
2020/12/22 08:05:23;;;;;;;;;;;11.50;99.90;;;;;;5056873;28;19933;-71
2020/12/22 08:07:51;;;;;;;;;;;11.60;99.90;;;;;;5056972;28;19925;-72
2020/12/22 08:10:18;;;;;;;;;;;11.60;99.90;;;;;;5056838;28;19925;-71
2020/12/22 08:12:50;;;;;;;;;;;11.60;99.90;;;;;;5056771;28;19933;-71
2020/12/22 08:15:17;;;;;;;;;;;11.60;99.90;;;;;;5056451;28;19924;-71
2020/12/22 08:17:45;;;;;;;;;;;11.60;99.90;;;;;;5056983;28;19924;-71
2020/12/22 08:20:12;;;;;;;;;;;11.70;99.90;;;;;;5056081;28;20015;-71
2020/12/22 08:22:41;;;;;;;;;;;11.70;99.90;;;;;;5056533;28;19968;-71
2020/12/22 08:25:07;;;;;;;;;;;11.80;99.90;;;;;;5056309;28;20007;-71
2020/12/22 08:27:34;;;;;;;;;;;11.80;99.90;;;;;;5056691;28;19933;-71
2020/12/22 08:30:00;;;;;;;;;;;11.90;99.90;;;;;;5056204;28;20313;-71
2020/12/22 08:32:27;;;;;;;;;;;11.90;99.90;;;;;;5056369;28;20343;-71
2020/12/22 08:34:53;;;;;;;;;;;11.90;99.90;;;;;;5056374;28;19935;-71
2020/12/22 08:37:25;;;;;;;;;;;11.90;99.90;;;;;;5055964;28;19924;-72
2020/12/22 08:39:52;;;;;;;;;;;11.90;99.90;;;;;;5056596;28;19928;-71
2020/12/22 08:42:20;;;;;;;;;;;12.00;99.90;;;;;;5055801;28;19989;-71
2020/12/22 08:44:49;;;;;;;;;;;12.00;99.90;;;;;;5056261;28;19929;-71
2020/12/22 08:47:16;;;;;;;;;;;12.00;99.90;;;;;;5056080;28;19933;-71
2020/12/22 08:49:42;;;;;;;;;;;12.10;99.90;;;;;;5056196;28;20011;-71
2020/12/22 08:52:09;;;;;;;;;;;12.10;99.90;;;;;;5055589;28;20004;-71
2020/12/22 08:54:36;;;;;;;;;;;12.10;99.90;;;;;;5056095;28;19925;-71
2020/12/22 08:57:09;;;;;;;;;;;12.10;99.90;;;;;;5055511;28;20252;-71
2020/12/22 08:59:36;;;;;;;;;;;12.20;99.90;;;;;;5055918;28;20351;-71
2020/12/22 09:02:02;;;;;;;;;;;12.20;99.90;;;;;;5055492;28;19925;-71
2020/12/22 09:04:28;;;;;;;;;;;12.30;99.90;;;;;;5055931;28;19924;-71
2020/12/22 09:06:55;;;;;;;;;;;12.30;99.90;;;;;;5054935;28;19925;-71
2020/12/22 09:09:24;;;;;;;;;;;12.40;99.90;;;;;;5055430;28;19932;-71
2020/12/22 09:11:51;;;;;;;;;;;12.50;99.90;;;;;;5055574;28;19936;-71
2020/12/22 09:14:18;;;;;;;;;;;12.60;99.90;;;;;;5055119;28;20351;-71
2020/12/22 09:16:45;;;;;;;;;;;12.60;99.90;;;;;;5055564;28;19956;-72
2020/12/22 09:19:11;;;;;;;;;;;12.60;99.90;;;;;;5055142;28;19944;-71
2020/12/22 09:21:38;;;;;;;;;;;12.70;99.90;;;;;;5055640;28;19925;-71
2020/12/22 09:24:04;;;;;;;;;;;12.70;99.90;;;;;;5054943;28;19959;-72
2020/12/22 09:26:30;;;;;;;;;;;12.80;99.90;;;;;;5055502;28;20263;-71
2020/12/22 09:28:57;;;;;;;;;;;12.90;99.90;;;;;;5055454;28;19931;-71
2020/12/22 09:31:24;;;;;;;;;;;12.90;99.90;;;;;;5055116;28;20752;-71
2020/12/22 09:33:50;;;;;;;;;;;13.00;99.90;;;;;;5055203;28;19938;-71
2020/12/22 09:36:16;;;;;;;;;;;13.00;99.90;;;;;;5054936;28;19935;-71
2020/12/22 09:38:42;;;;;;;;;;;13.00;99.90;;;;;;5055462;28;20361;-71
2020/12/22 09:41:09;;;;;;;;;;;13.10;99.90;;;;;;5054970;28;20015;-71
2020/12/22 09:43:35;;;;;;;;;;;13.10;99.90;;;;;;5055322;28;19925;-71
2020/12/22 09:46:02;;;;;;;;;;;13.10;99.90;;;;;;5054725;28;19925;-71
2020/12/22 09:48:28;;;;;;;;;;;13.10;99.90;;;;;;5055146;28;19929;-71
2020/12/22 09:50:54;;;;;;;;;;;13.10;99.90;;;;;;5055050;28;20321;-72
2020/12/22 09:53:20;;;;;;;;;;;13.20;99.90;;;;;;5054464;28;20335;-71
2020/12/22 09:55:47;;;;;;;;;;;13.20;99.90;;;;;;5054926;28;19925;-71
2020/12/22 09:58:13;;;;;;;;;;;13.20;99.90;;;;;;5054368;28;19924;-71
2020/12/22 10:00:39;;;;;;;;;;;13.30;99.90;;;;;;5054955;28;19925;-71
2020/12/22 10:03:09;;;;;;;;;;;13.20;99.90;;;;;;5054538;28;20292;-69
2020/12/22 10:05:35;;;;;;;;;;;13.20;99.90;;;;;;5054799;28;19936;-71
2020/12/22 10:08:01;;;;;;;;;;;13.20;99.90;;;;;;5054311;28;20272;-71
2020/12/22 10:10:28;;;;;;;;;;;13.30;99.90;;;;;;5054810;28;19931;-71
2020/12/22 10:12:54;;;;;;;;;;;13.30;99.90;;;;;;5054798;28;19925;-71
2020/12/22 10:15:20;;;;;;;;;;;13.40;99.90;;;;;;5054229;28;20035;-71
2020/12/22 10:17:46;;;;;;;;;;;13.40;99.90;;;;;;5053308;28;19924;-71
2020/12/22 10:20:13;;;;;;;;;;;13.30;99.90;;;;;;5053519;28;19931;-71
2020/12/22 10:22:39;;;;;;;;;;;13.30;99.90;;;;;;5052946;28;19928;-71
2020/12/22 10:25:06;;;;;;;;;;;13.30;99.90;;;;;;5052285;28;19924;-71
2020/12/22 10:27:32;;;;;;;;;;;13.40;99.90;;;;;;5052384;28;20355;-70
2020/12/22 10:29:58;;;;;;;;;;;13.40;99.90;;;;;;5052596;28;19935;-71
2020/12/22 10:32:24;;;;;;;;;;;13.50;99.90;;;;;;5051955;28;20045;-71
2020/12/22 10:34:50;;;;;;;;;;;13.50;99.90;;;;;;5052595;28;19924;-71
2020/12/22 10:37:17;;;;;;;;;;;13.50;99.90;;;;;;5053641;28;19986;-71
2020/12/22 10:39:48;;;;;;;;;;;13.50;99.90;;;;;;5054226;28;19978;-71
2020/12/22 10:42:14;;;;;;;;;;;13.50;99.90;;;;;;5053681;28;20461;-71
2020/12/22 10:44:40;;;;;;;;;;;13.50;99.90;;;;;;5054087;28;20011;-71
2020/12/22 10:47:07;;;;;;;;;;;13.60;99.90;;;;;;5053297;28;19935;-70
2020/12/22 10:49:33;;;;;;;;;;;13.60;99.90;;;;;;5053993;28;19924;-71
2020/12/22 10:51:59;;;;;;;;;;;13.60;99.90;;;;;;5054052;28;20003;-71
2020/12/22 10:54:26;;;;;;;;;;;13.70;99.90;;;;;;5053281;28;20370;-71
2020/12/22 10:56:52;;;;;;;;;;;13.70;99.90;;;;;;5053880;28;19924;-71
2020/12/22 10:59:19;;;;;;;;;;;13.80;99.90;;;;;;5053409;28;19932;-71
2020/12/22 11:01:47;;;;;;;;;;;13.80;99.90;;;;;;5053698;28;19925;-71
2020/12/22 11:04:13;;;;;;;;;;;13.80;99.90;;;;;;5053564;28;19940;-71
2020/12/22 11:06:47;;;;;;;;;;;13.80;99.90;;;;;;5053667;28;19935;-71
2020/12/22 11:09:14;;;;;;;;;;;13.80;99.90;;;;;;5053229;28;19928;-71
2020/12/22 11:11:43;;;;;;;;;;;13.80;99.90;;;;;;5053749;28;20019;-71
2020/12/22 11:14:09;;;;;;;;;;;13.90;99.90;;;;;;5053032;28;20174;-71
2020/12/22 11:16:36;;;;;;;;;;;13.90;99.90;;;;;;5053251;28;19931;-71
2020/12/22 11:19:02;;;;;;;;;;;14.00;99.90;;;;;;5053368;28;19925;-71
2020/12/22 11:21:28;;;;;;;;;;;14.00;99.90;;;;;;5052978;28;19925;-72
2020/12/22 11:23:54;;;;;;;;;;;14.00;99.90;;;;;;5053277;28;20004;-71
2020/12/22 11:26:22;;;;;;;;;;;14.10;99.90;;;;;;5052908;28;20414;-71
2020/12/22 11:28:49;;;;;;;;;;;14.10;99.90;;;;;;5052884;28;20012;-71
2020/12/22 11:31:15;;;;;;;;;;;14.10;99.90;;;;;;5052875;28;19935;-71
2020/12/22 11:33:42;;;;;;;;;;;14.10;99.90;;;;;;5053137;28;20027;-71
2020/12/22 11:36:09;;;;;;;;;;;14.10;99.90;;;;;;5052622;28;20016;-71
2020/12/22 11:38:36;;;;;;;;;;;14.20;99.90;;;;;;5053343;28;19940;-71
2020/12/22 11:41:02;;;;;;;;;;;14.30;99.90;;;;;;5053095;28;20377;-71
2020/12/22 11:43:28;;;;;;;;;;;14.30;99.90;;;;;;5052664;28;19939;-71
2020/12/22 11:45:55;;;;;;;;;;;14.30;99.90;;;;;;5053063;28;19925;-71
2020/12/22 11:48:24;;;;;;;;;;;14.30;99.90;;;;;;5052636;28;20123;-71
2020/12/22 11:50:51;;;;;;;;;;;14.40;99.90;;;;;;5053153;28;19986;-71
2020/12/22 11:53:17;;;;;;;;;;;14.40;99.90;;;;;;5052660;28;19925;-71
2020/12/22 11:55:44;;;;;;;;;;;14.40;99.90;;;;;;5052972;28;19978;-71
2020/12/22 11:58:10;;;;;;;;;;;14.50;99.90;;;;;;5052588;28;19933;-71
2020/12/22 12:00:36;;;;;;;;;;;14.40;99.90;;;;;;5053094;28;20370;-71
2020/12/22 12:03:03;;;;;;;;;;;14.40;99.90;;;;;;5052943;28;19925;-71
2020/12/22 12:05:30;;;;;;;;;;;14.50;99.90;;;;;;5052499;28;19933;-71
2020/12/22 12:07:56;;;;;;;;;;;14.50;99.90;;;;;;5052858;28;20019;-71
2020/12/22 12:10:22;;;;;;;;;;;14.50;99.90;;;;;;5052273;28;20015;-71
2020/12/22 12:12:48;;;;;;;;;;;14.50;99.90;;;;;;5053141;28;19935;-71
2020/12/22 12:15:14;;;;;;;;;;;14.60;99.90;;;;;;5052368;28;19925;-71
2020/12/22 12:17:41;;;;;;;;;;;14.60;99.90;;;;;;5052730;28;19925;-71
2020/12/22 12:20:08;;;;;;;;;;;14.60;99.90;;;;;;5052718;28;19944;-72
2020/12/22 12:22:35;;;;;;;;;;;14.60;99.90;;;;;;5051602;28;20143;-71
2020/12/22 12:25:02;;;;;;;;;;;14.70;99.90;;;;;;5052651;28;20277;-71
2020/12/22 12:27:30;;;;;;;;;;;14.70;99.90;;;;;;5052253;28;19935;-71
2020/12/22 12:29:56;;;;;;;;;;;14.70;99.90;;;;;;5052647;28;20331;-71
2020/12/22 12:32:26;;;;;;;;;;;14.80;99.90;;;;;;5052226;28;20396;-71
2020/12/22 12:34:52;;;;;;;;;;;14.80;99.90;;;;;;5052535;28;19924;-71
2020/12/22 12:37:19;;;;;;;;;;;14.80;99.90;;;;;;5052002;28;19925;-71
2020/12/22 12:39:45;;;;;;;;;;;14.90;99.90;;;;;;5052620;28;19925;-71
2020/12/22 12:42:12;;;;;;;;;;;14.90;99.90;;;;;;5052879;28;20405;-71
2020/12/22 12:44:38;;;;;;;;;;;14.90;99.90;;;;;;5041127;28;19931;-71
2020/12/22 12:47:04;;;;;;;;;;;15.00;99.90;;;;;;5056084;28;19935;-71
2020/12/22 12:49:30;;;;;;;;;;;15.00;99.90;;;;;;5055852;28;19924;-71
2020/12/22 12:51:56;;;;;;;;;;;15.00;99.90;;;;;;5056073;28;19925;-71
2020/12/22 12:54:23;;;;;;;;;;;15.00;99.90;;;;;;5055755;28;20219;-71
2020/12/22 12:56:50;;;;;;;;;;;15.00;99.90;;;;;;5056041;28;19929;-71
2020/12/22 12:59:16;;;;;;;;;;;15.00;99.90;;;;;;5055539;28;19929;-71
2020/12/22 13:01:42;;;;;;;;;;;15.00;99.90;;;;;;5055886;28;20347;-71
2020/12/22 13:04:08;;;;;;;;;;;15.00;99.90;;;;;;5055998;28;20290;-71
2020/12/22 13:06:35;;;;;;;;;;;15.10;99.90;;;;;;5055631;28;19940;-71
2020/12/22 13:09:01;;;;;;;;;;;15.10;99.90;;;;;;5055814;28;20008;-71
2020/12/22 13:11:28;;;;;;;;;;;15.10;99.90;;;;;;5055381;28;20039;-71
2020/12/22 13:13:54;;;;;;;;;;;15.20;99.90;;;;;;5055876;28;19931;-71
2020/12/22 13:16:20;;;;;;;;;;;15.10;99.90;;;;;;5055239;28;19993;-71
2020/12/22 13:18:47;;;;;;;;;;;15.20;99.90;;;;;;5055730;28;19947;-71
2020/12/22 13:21:13;;;;;;;;;;;15.20;99.90;;;;;;5055655;28;19933;-69
2020/12/22 13:23:40;;;;;;;;;;;15.20;99.90;;;;;;5055206;28;20388;-70
2020/12/22 13:26:06;;;;;;;;;;;15.20;99.90;;;;;;5055400;28;19977;-70
2020/12/22 13:28:33;;;;;;;;;;;15.30;99.90;;;;;;5055281;28;19935;-70
2020/12/22 13:30:59;;;;;;;;;;;15.30;99.90;;;;;;5055301;28;20019;-70
2020/12/22 13:33:25;;;;;;;;;;;15.30;99.90;;;;;;5054891;28;19947;-70
2020/12/22 13:35:52;;;;;;;;;;;15.30;99.90;;;;;;5055252;28;20403;-70
2020/12/22 13:38:18;;;;;;;;;;;15.30;99.90;;;;;;5054863;28;19925;-70
2020/12/22 13:40:44;;;;;;;;;;;15.30;99.90;;;;;;5055264;28;19978;-70
2020/12/22 13:43:10;;;;;;;;;;;15.30;99.90;;;;;;5044333;28;19929;-70
2020/12/22 13:45:37;;;;;;;;;;;15.30;99.90;;;;;;5038881;28;19982;-70
2020/12/22 13:48:04;;;;;;;;;;;15.30;99.90;;;;;;5052354;28;22460;-70
2020/12/22 13:50:30;;;;;;;;;;;15.30;99.90;;;;;;5034749;28;19933;-70
2020/12/22 13:52:56;;;;;;;;;;;15.30;99.90;;;;;;5042672;28;20347;-70
2020/12/22 13:55:22;;;;;;;;;;;15.30;99.90;;;;;;5054522;28;19947;-70
2020/12/22 13:57:51;;;;;;;;;;;15.30;99.90;;;;;;5055012;28;19935;-70
2020/12/22 14:00:17;;;;;;;;;;;15.30;99.90;;;;;;5054979;28;19924;-70
2020/12/22 14:02:44;;;;;;;;;;;15.30;99.90;;;;;;5036034;28;20024;-70
2020/12/22 14:05:10;;;;;;;;;;;15.30;99.90;;;;;;5034832;28;19925;-70
2020/12/22 14:07:36;;;;;;;;;;;15.30;99.90;;;;;;5034455;28;20024;-70
2020/12/22 14:10:03;;;;;;;;;;;15.30;99.90;;;;;;5034749;28;20240;-70
2020/12/22 14:12:29;;;;;;;;;;;15.30;99.90;;;;;;5034220;28;19933;-70
2020/12/22 14:14:55;;;;;;;;;;;15.30;99.90;;;;;;5035169;28;19925;-70
2020/12/22 14:17:22;;;;;;;;;;;15.30;99.90;;;;;;5034160;28;19925;-70
2020/12/22 14:19:49;;;;;;;;;;;15.30;99.90;;;;;;5052391;28;20320;-70